createdAt,value
2022-07-28T00:07:41.189Z,6.15
2022-07-28T00:17:42.781Z,7.70
2022-07-28T00:27:44.393Z,7.73
2022-07-28T00:37:45.956Z,9.07
2022-07-28T00:47:50.780Z,9.10
2022-07-28T00:57:52.420Z,8.98
2022-07-28T01:08:29.701Z,10.40
2022-07-28T01:18:54.423Z,9.70
2022-07-28T01:29:23.645Z,9.70
2022-07-28T01:39:30.824Z,10.13
2022-07-28T01:49:33.484Z,10.88
2022-07-28T01:59:37.926Z,9.93
2022-07-28T02:09:40.483Z,9.63
2022-07-28T02:19:44.676Z,10.37
2022-07-28T02:29:51.672Z,10.53
2022-07-28T02:40:00.311Z,11.38
2022-07-28T02:50:03.912Z,11.07
2022-07-28T03:00:06.096Z,13.10
2022-07-28T03:10:08.076Z,13.23
2022-07-28T03:20:11.300Z,14.90
2022-07-28T03:30:17.063Z,15.07
2022-07-28T03:40:20.463Z,14.43
2022-07-28T03:50:23.652Z,13.13
2022-07-28T04:00:25.845Z,11.90
2022-07-28T04:10:27.535Z,10.67
2022-07-28T04:20:29.180Z,10.00
2022-07-28T04:30:30.775Z,9.83
2022-07-28T04:40:32.422Z,9.53
2022-07-28T04:50:34.009Z,8.93
2022-07-28T05:00:35.571Z,8.50
2022-07-28T05:10:37.194Z,7.85
2022-07-28T05:20:38.770Z,8.23
2022-07-28T05:30:40.442Z,8.13
2022-07-28T05:40:41.975Z,8.13
2022-07-28T05:50:43.553Z,9.17
2022-07-28T06:00:45.109Z,7.50
2022-07-28T06:10:47.766Z,8.03
2022-07-28T06:20:49.337Z,6.67
2022-07-28T06:30:50.930Z,7.10
2022-07-28T06:40:52.517Z,7.90
2022-07-28T06:50:54.071Z,8.43
2022-07-28T07:00:55.723Z,8.33
2022-07-28T07:10:57.507Z,7.97
2022-07-28T07:20:59.077Z,10.70
2022-07-28T07:31:00.651Z,10.30
2022-07-28T07:41:02.213Z,12.77
2022-07-28T07:51:04.238Z,9.13
2022-07-28T08:01:05.844Z,10.23
2022-07-28T08:11:08.068Z,9.53
2022-07-28T08:21:10.313Z,9.17
2022-07-28T08:31:11.915Z,12.00
2022-07-28T08:41:26.283Z,11.47
2022-07-28T08:51:37.714Z,13.00
2022-07-28T09:08:00.887Z,12.97
2022-07-28T09:12:35.485Z,11.80
2022-07-28T09:22:54.778Z,13.80
2022-07-28T09:33:42.930Z,9.80
2022-07-28T09:43:49.861Z,10.67
2022-07-28T09:54:11.087Z,11.23
2022-07-28T10:04:12.896Z,12.87
2022-07-28T10:14:14.647Z,13.52
2022-07-28T10:24:23.925Z,11.10
2022-07-28T10:34:31.852Z,15.00
2022-07-28T10:44:33.674Z,14.80
2022-07-28T10:54:43.394Z,11.87
2022-07-28T11:04:44.982Z,11.75
2022-07-28T11:14:46.645Z,10.10
2022-07-28T11:24:57.958Z,8.37
2022-07-28T11:35:08.475Z,8.33
2022-07-28T11:45:23.823Z,7.80
2022-07-28T11:55:55.593Z,7.32
2022-07-28T12:05:58.989Z,7.27
2022-07-28T12:16:00.953Z,6.70
2022-07-28T12:26:03.929Z,6.50
2022-07-28T12:36:06.601Z,6.30
2022-07-28T12:46:08.291Z,5.88
2022-07-28T12:56:09.980Z,6.63
2022-07-28T13:06:12.001Z,6.80
2022-07-28T13:16:15.145Z,6.63
2022-07-28T13:26:16.764Z,5.70
2022-07-28T13:36:18.383Z,6.13
2022-07-28T13:46:20.101Z,6.37
2022-07-28T13:56:22.862Z,6.33
2022-07-28T14:06:24.512Z,6.00
2022-07-28T14:16:26.321Z,5.70
2022-07-28T14:26:36.162Z,6.30
2022-07-28T14:36:38.496Z,5.70
2022-07-28T14:46:40.102Z,5.20
2022-07-28T14:56:41.670Z,5.60
2022-07-28T15:06:43.555Z,5.70
2022-07-28T15:16:45.177Z,6.32
2022-07-28T15:26:46.847Z,6.17
2022-07-28T15:36:48.561Z,6.03
2022-07-28T15:46:50.331Z,5.30
2022-07-28T15:56:52.229Z,5.50
2022-07-28T16:06:53.939Z,5.68
2022-07-28T16:16:56.751Z,5.10
2022-07-28T16:26:58.364Z,4.57
2022-07-28T16:36:59.965Z,4.70
2022-07-28T16:47:01.557Z,5.47
2022-07-28T16:57:03.281Z,4.68
2022-07-28T17:07:07.343Z,5.00
2022-07-28T17:17:09.209Z,4.67
2022-07-28T17:37:32.449Z,5.10
2022-07-28T17:47:35.858Z,4.43
2022-07-28T17:57:40.348Z,4.40
2022-07-28T18:07:48.738Z,5.43
2022-07-28T18:17:54.741Z,4.43
2022-07-28T18:27:57.569Z,4.67
2022-07-28T18:37:59.250Z,4.65
2022-07-28T18:48:01.824Z,4.87
2022-07-28T18:58:03.427Z,4.50
2022-07-28T19:08:05.644Z,5.07
2022-07-28T19:18:10.166Z,4.73
2022-07-28T19:28:13.228Z,4.75
2022-07-28T19:38:14.812Z,4.97
2022-07-28T19:48:16.360Z,4.63
2022-07-28T19:58:18.877Z,5.23
2022-07-28T20:08:20.482Z,4.83
2022-07-28T20:18:22.037Z,4.78
2022-07-28T20:28:24.082Z,4.70
2022-07-28T20:38:25.715Z,5.00
2022-07-28T20:48:27.420Z,4.87
2022-07-28T20:58:28.991Z,4.13
2022-07-28T21:08:31.866Z,3.90
2022-07-28T21:18:33.663Z,4.37
2022-07-28T21:28:35.809Z,3.13
2022-07-28T21:38:37.353Z,3.50
2022-07-28T21:48:39.049Z,3.10
2022-07-28T21:58:42.322Z,3.38
2022-07-28T22:08:44.016Z,3.00
2022-07-28T22:18:45.594Z,2.53
2022-07-28T22:28:47.221Z,2.50
2022-07-28T22:38:48.744Z,3.37
2022-07-28T22:48:50.381Z,2.58
2022-07-28T22:58:52.127Z,2.93
2022-07-28T23:08:53.820Z,3.00
2022-07-28T23:18:55.529Z,3.53
2022-07-28T23:28:58.584Z,5.30
2022-07-28T23:39:00.226Z,7.18
2022-07-28T23:49:01.967Z,6.63
2022-07-28T23:59:03.656Z,7.87
